TAF Flughafenprognosen

Nürnberg TAF, ausgegeben So 14.04. 13:00

TAF EDDN 141100Z 1412/1512 28012KT 9999 FEW045 PROB30 TEMPO 1412/1415 28015G25KT BECMG 1416/1418 VRB03KT BECMG 1506/1508 27005KT BECMG 1510/1512 24010KT
GültigkeitVonBisWind in Beaufort
(Knoten)
Wolken
(Meter über Grund)
Sichtweite
(Meter)
Wettererscheinung
Grundvorhersage So 14.04. 14:00 Mo 15.04. 14:00 W 4 (12) Leicht bewölkt (1400) >= 10000  
Vorübergehend
(Wahrscheinlichkeit 30 %)
So 14.04. 14:00 So 14.04. 17:00 W 4 (15) - 6 (25)      
Übergang zu So 14.04. 18:00 So 14.04. 20:00 Uml 2 (3)      
Übergang zu Mo 15.04. 08:00 Mo 15.04. 10:00 W 2 (5)      
Übergang zu Mo 15.04. 12:00 Mo 15.04. 14:00 WSW 3 (10)      

 

Hof TAF, ausgegeben So 14.04. 16:00

TAF EDQM 141400Z 1415/1424 25015G25KT 9999 SCT045 BECMG 1417/1419 VRB03KT
GültigkeitVonBisWind in Beaufort
(Knoten)
Wolken
(Meter über Grund)
Sichtweite
(Meter)
Wettererscheinung
Grundvorhersage So 14.04. 17:00 Mo 15.04. 02:00 WSW 4 (15) - 6 (25) Wolkig (1400) >= 10000  
Übergang zu So 14.04. 19:00 So 14.04. 21:00 Uml 2 (3)      

 

Erfurt-Bindersleben TAF, ausgegeben So 14.04. 13:00

TAF EDDE 141100Z 1412/1512 29012KT 9999 SCT035 PROB30 TEMPO 1412/1414 30015G25KT BECMG 1415/1418 32004KT PROB40 TEMPO 1422/1505 RA BECMG 1505/1506 24007KT BECMG 1508/1511 26013KT PROB30 TEMPO 1510/1512 27015G25KT SHRA SCT030CB
GültigkeitVonBisWind in Beaufort
(Knoten)
Wolken
(Meter über Grund)
Sichtweite
(Meter)
Wettererscheinung
Grundvorhersage So 14.04. 14:00 Mo 15.04. 14:00 WNW 4 (12) Wolkig (1100) >= 10000  
Vorübergehend
(Wahrscheinlichkeit 30 %)
So 14.04. 14:00 So 14.04. 16:00 WNW 4 (15) - 6 (25)      
Übergang zu So 14.04. 17:00 So 14.04. 20:00 NW 2 (4)      
Vorübergehend
(Wahrscheinlichkeit 40 %)
Mo 15.04. 00:00 Mo 15.04. 07:00       Regen
Übergang zu Mo 15.04. 07:00 Mo 15.04. 08:00 WSW 3 (7)      
Übergang zu Mo 15.04. 10:00 Mo 15.04. 13:00 W 4 (13)      
Vorübergehend
(Wahrscheinlichkeit 30 %)
Mo 15.04. 12:00 Mo 15.04. 14:00 W 4 (15) - 6 (25) Wolkig CB (910)   Regen-Schauer

 

Augsburg TAF, ausgegeben So 14.04. 16:00

TAF EDMA 141400Z 1415/1424 27010KT CAVOK BECMG 1418/1420 VRB02KT
GültigkeitVonBisWind in Beaufort
(Knoten)
Wolken
(Meter über Grund)
Sichtweite
(Meter)
Wettererscheinung
Grundvorhersage So 14.04. 17:00 Mo 15.04. 02:00 W 3 (10) Nicht signifikant >= 10000  
Übergang zu So 14.04. 20:00 So 14.04. 22:00 Uml 1 (2)      

 

Frankfurt TAF, ausgegeben So 14.04. 13:00

TAF EDDF 141100Z 1412/1518 28010KT CAVOK BECMG 1418/1421 36005KT TEMPO 1420/1506 BKN040 BECMG 1506/1509 23012KT BKN035 BECMG 1509/1512 24015G30KT PROB40 TEMPO 1515/1518 26025G40KT SHRA SCT015 BKN020CB
GültigkeitVonBisWind in Beaufort
(Knoten)
Wolken
(Meter über Grund)
Sichtweite
(Meter)
Wettererscheinung
Grundvorhersage So 14.04. 14:00 Mo 15.04. 20:00 W 3 (10) Nicht signifikant >= 10000  
Übergang zu So 14.04. 20:00 So 14.04. 23:00 N 2 (5)      
Vorübergehend So 14.04. 22:00 Mo 15.04. 08:00   Stark bewölkt (1200)    
Übergang zu Mo 15.04. 08:00 Mo 15.04. 11:00 SW 4 (12) Stark bewölkt (1100)    
Übergang zu Mo 15.04. 11:00 Mo 15.04. 14:00 WSW 4 (15) - 7 (30)      
Vorübergehend
(Wahrscheinlichkeit 40 %)
Mo 15.04. 17:00 Mo 15.04. 20:00 W 6 (25) - 8 (40) Stark bewölkt CB (610)
Wolkig (460)
  Regen-Schauer

 

Stuttgart TAF, ausgegeben So 14.04. 13:00

TAF EDDS 141100Z 1412/1512 29008KT CAVOK PROB40 TEMPO 1502/1510 SHRA BKN014 BKN025CB BECMG 1509/1512 26015G25KT
GültigkeitVonBisWind in Beaufort
(Knoten)
Wolken
(Meter über Grund)
Sichtweite
(Meter)
Wettererscheinung
Grundvorhersage So 14.04. 14:00 Mo 15.04. 14:00 WNW 3 (8) Nicht signifikant >= 10000  
Vorübergehend
(Wahrscheinlichkeit 40 %)
Mo 15.04. 04:00 Mo 15.04. 12:00   Stark bewölkt CB (760)
Stark bewölkt (430)
  Regen-Schauer
Übergang zu Mo 15.04. 11:00 Mo 15.04. 14:00 W 4 (15) - 6 (25)      

 

München TAF, ausgegeben So 14.04. 13:00

TAF EDDM 141100Z 1412/1518 28010KT CAVOK BECMG 1416/1418 VRB02KT BECMG 1500/1502 23005KT TEMPO 1506/1516 SHRA BKN040CB BECMG 1510/1512 26010KT TEMPO 1510/1516 27015G25KT PROB30 TEMPO 1510/1513 29020G35KT TSRA
GültigkeitVonBisWind in Beaufort
(Knoten)
Wolken
(Meter über Grund)
Sichtweite
(Meter)
Wettererscheinung
Grundvorhersage So 14.04. 14:00 Mo 15.04. 20:00 W 3 (10) Nicht signifikant >= 10000  
Übergang zu So 14.04. 18:00 So 14.04. 20:00 Uml 1 (2)      
Übergang zu Mo 15.04. 02:00 Mo 15.04. 04:00 SW 2 (5)      
Vorübergehend Mo 15.04. 08:00 Mo 15.04. 18:00   Stark bewölkt CB (1200)   Regen-Schauer
Übergang zu Mo 15.04. 12:00 Mo 15.04. 14:00 W 3 (10)      
Vorübergehend Mo 15.04. 12:00 Mo 15.04. 18:00 W 4 (15) - 6 (25)      
Vorübergehend
(Wahrscheinlichkeit 30 %)
Mo 15.04. 12:00 Mo 15.04. 15:00 WNW 5 (20) - 8 (35)     Gewitter mit Regen